»·PEaware :: N5122W KDLO-KEMT

N5122W :: KDLO-KEMT

FLIGHT INFORMATION

Flight Status: Arrived
Operator: Privately registered:
United States
More flights under this callsign
Pilot: Clement D. (7816)
Aircraft: GROB G115 A/B/C/D/E BAVARIAN
(G115)
More flights by this aircraft type
Origin: KDLO Delano Mun
United States
Destination: KEMT El Monte
United States
More flights between these airports :: More routes between these airports
Route: KDLO EHF GMN FIM KEMT
File this flight plan on PilotEdge
Remarks:
Altitude:
(Current/Filed)
7,500ft
Speed:
(Current/Filed)
130kts
Departed: 03-Jul-15 04:09 PM
Arrived: 03-Jul-15 05:16 PM
Distance/Time
Traveled:
116nm/1:06
Distance/Time
To Go:
Arrived

Flight Plot

Page will automatically refresh every two minutes.


Map Options




Map Legend


Flown Route
Filed Route
Departure Airport
Arrival Airport
Navaid (VOR, NDB)
Fix

Horizontal Profiles

Position Reports

Time Latitude Longitude Heading Altitude Ground
Speed
03-Jul-15 15:48 35.745517 -119.239200 248 317ft 0kts
03-Jul-15 15:49 35.745517 -119.239200 248 317ft 0kts
03-Jul-15 15:50 35.745517 -119.239200 248 317ft 0kts
03-Jul-15 15:51 35.745517 -119.239200 248 317ft 0kts
03-Jul-15 15:52 35.745517 -119.239200 248 317ft 0kts
03-Jul-15 15:53 35.745517 -119.239200 248 317ft 0kts
03-Jul-15 15:54 35.745517 -119.239200 248 317ft 0kts
03-Jul-15 15:55 35.745517 -119.239200 248 317ft 0kts
03-Jul-15 15:56 35.745517 -119.239200 248 317ft 0kts
03-Jul-15 15:57 35.745517 -119.239200 248 317ft 0kts
03-Jul-15 15:58 35.745517 -119.239201 248 317ft 0kts
03-Jul-15 15:59 35.745516 -119.239202 248 317ft 0kts
03-Jul-15 16:00 35.745588 -119.239108 81 317ft 4kts
03-Jul-15 16:01 35.744462 -119.237952 157 317ft 9kts
03-Jul-15 16:02 35.740367 -119.235975 158 317ft 8kts
03-Jul-15 16:03 35.738346 -119.234706 112 317ft 10kts
03-Jul-15 16:04 35.738015 -119.234288 22 317ft 0kts
03-Jul-15 16:05 35.738024 -119.234284 19 317ft 0kts
03-Jul-15 16:06 35.738008 -119.233398 77 317ft 0kts
03-Jul-15 16:07 35.738943 -119.233303 336 317ft 21kts
03-Jul-15 16:08 35.750268 -119.245374 204 1048ft 87kts
03-Jul-15 16:09 35.725936 -119.237959 155 2161ft 93kts
03-Jul-15 16:10 35.705931 -119.220637 135 3190ft 89kts
03-Jul-15 16:11 35.681010 -119.207225 159 3809ft 102kts
03-Jul-15 16:12 35.654833 -119.194648 159 4760ft 101kts
03-Jul-15 16:13 35.628483 -119.183820 159 5539ft 112kts
03-Jul-15 16:14 35.596391 -119.168579 156 5568ft 126kts
03-Jul-15 16:15 35.564277 -119.149685 153 5503ft 128kts
03-Jul-15 16:16 35.533319 -119.128388 158 5598ft 133kts
03-Jul-15 16:17 35.498525 -119.114901 162 5542ft 130kts
03-Jul-15 16:18 35.463496 -119.102782 165 5464ft 133kts
03-Jul-15 16:19 35.428612 -119.092778 163 5590ft 129kts
03-Jul-15 16:20 35.394064 -119.079746 164 5774ft 133kts
03-Jul-15 16:21 35.359383 -119.064051 155 5838ft 138kts
03-Jul-15 16:22 35.321539 -119.050669 163 5534ft 142kts
03-Jul-15 16:23 35.284003 -119.039922 165 5482ft 135kts
03-Jul-15 16:24 35.248719 -119.029768 167 5542ft 126kts
03-Jul-15 16:25 35.214648 -119.018487 165 5476ft 125kts
03-Jul-15 16:26 35.182226 -119.005223 159 5520ft 122kts
03-Jul-15 16:27 35.149546 -118.991650 164 5549ft 120kts
03-Jul-15 16:28 35.117665 -118.979617 168 5814ft 121kts
03-Jul-15 16:29 35.089680 -118.969910 163 5739ft 128kts
03-Jul-15 16:30 35.057611 -118.957350 158 6072ft 110kts
03-Jul-15 16:31 35.031278 -118.941501 153 6676ft 102kts
03-Jul-15 16:32 35.005160 -118.927379 159 7375ft 103kts
03-Jul-15 16:33 34.977065 -118.915841 163 7862ft 107kts
03-Jul-15 16:34 34.947108 -118.905821 162 8029ft 111kts
03-Jul-15 16:35 34.918579 -118.896655 165 8390ft 105kts
03-Jul-15 16:36 34.890328 -118.887368 159 8678ft 106kts
03-Jul-15 16:37 34.860882 -118.875965 166 8938ft 117kts
03-Jul-15 16:38 34.826909 -118.870804 173 8800ft 125kts
03-Jul-15 16:39 34.792796 -118.862798 171 8686ft 126kts
03-Jul-15 16:40 34.758091 -118.864374 182 8626ft 124kts
03-Jul-15 16:41 34.723633 -118.867000 184 8648ft 122kts
03-Jul-15 16:42 34.690715 -118.872470 188 8794ft 121kts
03-Jul-15 16:43 34.655440 -118.879161 189 8628ft 126kts
03-Jul-15 16:44 34.626638 -118.881356 178 8559ft 120kts
03-Jul-15 16:45 34.594465 -118.878316 176 8455ft 123kts
03-Jul-15 16:46 34.566683 -118.876446 174 8354ft 124kts
03-Jul-15 16:47 34.541551 -118.875161 178 8253ft 127kts
03-Jul-15 16:48 34.482136 -118.876589 175 8120ft 120kts
03-Jul-15 16:49 34.452874 -118.876910 182 8009ft 126kts
03-Jul-15 16:50 34.411839 -118.878934 181 8107ft 128kts
03-Jul-15 16:51 34.407439 -118.879150 180 8139ft 128kts
03-Jul-15 16:52 34.342793 -118.876347 120 7929ft 139kts
03-Jul-15 16:53 34.328439 -118.834824 105 7062ft 131kts
03-Jul-15 16:54 34.323933 -118.791494 93 6488ft 129kts
03-Jul-15 16:55 34.312802 -118.749298 113 5849ft 130kts
03-Jul-15 16:56 34.299393 -118.708725 108 5489ft 129kts
03-Jul-15 16:57 34.288394 -118.667944 107 5446ft 126kts
03-Jul-15 16:58 34.277052 -118.628271 110 5476ft 121kts
03-Jul-15 16:59 34.264782 -118.589281 108 5624ft 132kts
03-Jul-15 17:00 34.258510 -118.566503 108 5576ft 136kts
03-Jul-15 17:01 34.236824 -118.503637 112 5531ft 138kts
03-Jul-15 17:02 34.223299 -118.460808 110 5548ft 137kts
03-Jul-15 17:03 34.211143 -118.419511 112 5425ft 134kts
03-Jul-15 17:04 34.196367 -118.379081 113 5384ft 127kts
03-Jul-15 17:05 34.182810 -118.339079 110 5453ft 128kts
03-Jul-15 17:06 34.170918 -118.297743 108 5353ft 129kts
03-Jul-15 17:07 34.156342 -118.257696 114 5378ft 129kts
03-Jul-15 17:08 34.138465 -118.220497 123 4331ft 130kts
03-Jul-15 17:09 34.119849 -118.186461 121 2984ft 125kts
03-Jul-15 17:10 34.106013 -118.150901 110 1927ft 111kts
03-Jul-15 17:11 34.098586 -118.112813 99 1515ft 122kts
03-Jul-15 17:12 34.099856 -118.071670 85 1479ft 121kts
03-Jul-15 17:13 34.107977 -118.033122 106 1062ft 109kts
03-Jul-15 17:14 34.089009 -118.033136 208 303ft 56kts
03-Jul-15 17:15 34.083689 -118.036200 204 299ft 16kts
03-Jul-15 17:16 34.080910 -118.037254 99 299ft 0kts
03-Jul-15 17:17 34.082006 -118.035989 113 299ft 5kts
03-Jul-15 17:18 34.081921 -118.035763 113 299ft 0kts
03-Jul-15 17:19 34.081921 -118.035763 113 299ft 0kts
03-Jul-15 17:20 34.081921 -118.035763 113 299ft 0kts
03-Jul-15 17:21 34.081921 -118.035763 113 299ft 0kts
03-Jul-15 17:22 34.081921 -118.035763 113 299ft 0kts

Navigation Log

Ident Type
Flight plan parsing failed, navigation log unavailable